Terminal Aerodrome Forecast
Issued by NWS Sterling, VA

Current Version | Previous Version | Graphics & Text | Print | Product List | Glossary On
Versions: 1 2 3 4 5 6 7 8 9 10 11 12 13 14 15 16 17 18 19 20 21 22 23 24 25 26 27 28 29
971
FTUS41 KLWX 051121
TAFIAD
TAF
KIAD 051121Z 0512/0618 33014KT P6SM OVC040
     FM051600 32016G24KT P6SM FEW060
     FM060000 32006KT P6SM SKC
     FM060600 00000KT P6SM FEW250
     FM061500 20006KT P6SM SCT250=

USA.gov is the U.S. government's official web portal to all federal, state and local government web resources and services.